Time;durP1;ratioP1;P1;durP2;ratioP2;P2;SDS_P1;SDS_P2;PMS_P1;PMS_P2;Temp;Humidity;BMP_temperature;BMP_pressure;BME280_temperature;BME280_humidity;BME280_pressure;Samples;Min_cycle;Max_cycle;Signal;HPM_P1;HPM_P2
2022/09/01 00:00:48;;;;;;;13.32;9.30;;;;;;;18.08;64.92;99326.75;5245708;28;20059;-71
2022/09/01 00:03:38;;;;;;;14.52;8.85;;;;;;;18.20;64.60;99316.38;5246508;28;20193;-71
2022/09/01 00:06:31;;;;;;;14.55;8.90;;;;;;;18.14;64.43;99319.81;5245840;28;20792;-71
2022/09/01 00:09:22;;;;;;;13.32;9.45;;;;;;;18.05;65.65;99327.13;5245914;28;20063;-71
2022/09/01 00:12:12;;;;;;;13.48;9.93;;;;;;;18.21;64.86;99328.81;5244774;28;20106;-71
2022/09/01 00:15:05;;;;;;;14.57;10.73;;;;;;;18.11;64.57;99333.59;5245831;28;20556;-71
2022/09/01 00:17:56;;;;;;;16.83;10.47;;;;;;;18.13;65.03;99322.69;5245533;28;20593;-71
2022/09/01 00:20:46;;;;;;;16.25;10.40;;;;;;;18.14;65.16;99330.53;5227451;28;20094;-71
2022/09/01 00:23:36;;;;;;;14.43;10.30;;;;;;;17.98;65.52;99325.34;5245517;28;20067;-71
2022/09/01 00:26:27;;;;;;;17.15;9.88;;;;;;;18.03;65.09;99336.38;5245445;28;20551;-71
2022/09/01 00:29:17;;;;;;;14.50;10.45;;;;;;;17.94;65.18;99338.28;5245695;28;20041;-71
2022/09/01 00:32:07;;;;;;;16.45;10.30;;;;;;;17.87;65.10;99333.84;5243989;28;20049;-71
2022/09/01 00:34:58;;;;;;;10.75;9.18;;;;;;;17.78;65.62;99336.63;5245564;28;20536;-71
2022/09/01 00:37:48;;;;;;;13.50;9.52;;;;;;;17.82;65.57;99337.91;5245199;28;20483;-71
2022/09/01 00:40:39;;;;;;;13.50;9.25;;;;;;;17.77;65.92;99340.31;5215444;28;20056;-71
2022/09/01 00:43:44;;;;;;;13.32;9.98;;;;;;;17.79;65.41;99329.41;5229776;28;20641;-71
2022/09/01 00:46:40;;;;;;;14.63;9.75;;;;;;;17.87;65.45;99326.63;5229411;28;20071;-71
2022/09/01 00:49:45;;;;;;;12.02;9.30;;;;;;;17.79;65.65;99330.22;5243736;28;20067;-71
2022/09/01 00:52:43;;;;;;;15.85;10.43;;;;;;;17.76;65.45;99324.38;5228665;28;20083;-71
2022/09/01 00:55:37;;;;;;;17.05;9.90;;;;;;;17.85;65.26;99320.63;5228625;28;20149;-71
2022/09/01 00:58:27;;;;;;;15.60;9.70;;;;;;;17.76;65.31;99317.19;5229260;28;20053;-71
2022/09/01 01:01:18;;;;;;;15.20;9.43;;;;;;;17.71;65.71;99321.38;5244123;28;20259;-71
2022/09/01 01:04:13;;;;;;;21.23;10.20;;;;;;;17.74;65.63;99321.84;5229493;28;20186;-72
2022/09/01 01:07:05;;;;;;;11.95;9.27;;;;;;;17.64;66.13;99317.78;5244358;28;20070;-71
2022/09/01 01:09:56;;;;;;;13.73;9.32;;;;;;;17.61;65.69;99316.28;5229985;28;20131;-71
2022/09/01 01:12:48;;;;;;;11.82;8.90;;;;;;;17.61;65.00;99314.47;5228980;28;20052;-71
2022/09/01 01:15:42;;;;;;;13.70;9.15;;;;;;;17.56;65.57;99324.03;5244420;28;20055;-71
2022/09/01 01:18:32;;;;;;;12.00;9.27;;;;;;;17.51;65.64;99313.00;5244406;28;20506;-71
2022/09/01 01:24:51;;;;;;;14.02;9.13;;;;;;;17.33;65.89;99311.50;5242522;28;20326;-71
2022/09/01 01:27:42;;;;;;;11.75;9.45;;;;;;;17.38;66.37;99314.47;5228822;28;20060;-71
2022/09/01 01:30:34;;;;;;;15.35;10.18;;;;;;;17.37;66.17;99322.69;5242295;28;20055;-71
2022/09/01 01:33:30;;;;;;;15.20;10.60;;;;;;;17.31;66.42;99318.88;5228593;28;20138;-71
2022/09/01 01:36:34;;;;;;;15.65;9.52;;;;;;;17.21;66.59;99301.38;5243716;28;20125;-71
2022/09/01 01:39:26;;;;;;;13.10;9.50;;;;;;;17.20;66.04;99311.25;5216485;28;20540;-71
2022/09/01 01:42:16;;;;;;;15.20;8.85;;;;;;;17.21;66.35;99307.56;5227801;28;20531;-71
2022/09/01 01:45:11;;;;;;;14.30;9.90;;;;;;;17.18;66.28;99315.94;5229424;28;20056;-72
2022/09/01 01:48:04;;;;;;;13.30;10.13;;;;;;;17.14;66.43;99320.00;5228997;28;20079;-71
2022/09/01 01:50:58;;;;;;;17.80;9.50;;;;;;;17.11;66.26;99318.50;5227962;28;20521;-71
2022/09/01 01:53:51;;;;;;;12.05;9.18;;;;;;;17.12;66.58;99314.84;5243454;28;20077;-72
2022/09/01 01:56:41;;;;;;;15.32;10.25;;;;;;;17.20;66.43;99305.91;5212542;28;20049;-72
2022/09/01 01:59:33;;;;;;;13.07;9.88;;;;;;;17.10;67.29;99316.03;5228107;28;20127;-71
2022/09/01 02:02:23;;;;;;;13.02;10.05;;;;;;;17.19;67.47;99317.63;5242123;28;20114;-71
2022/09/01 02:05:20;;;;;;;13.70;9.82;;;;;;;17.23;66.25;99326.97;5228034;28;20819;-71
2022/09/01 02:08:12;;;;;;;13.52;10.40;;;;;;;17.14;66.73;99320.84;5227291;28;20044;-71
2022/09/01 02:11:04;;;;;;;14.52;10.90;;;;;;;17.22;66.67;99319.97;5241573;28;20045;-71
2022/09/01 02:13:56;;;;;;;20.88;11.93;;;;;;;17.23;67.00;99326.97;5227714;28;20087;-72
2022/09/01 02:16:46;;;;;;;17.90;12.13;;;;;;;17.09;67.26;99309.00;5227300;28;20460;-71
2022/09/01 02:19:41;;;;;;;17.02;12.00;;;;;;;17.18;67.35;99324.00;5228462;28;20044;-72
2022/09/01 02:22:31;;;;;;;18.60;12.65;;;;;;;17.21;67.23;99326.31;5227182;28;20127;-71
2022/09/01 02:25:22;;;;;;;18.23;12.93;;;;;;;17.30;66.79;99322.56;5243713;28;20056;-71
2022/09/01 02:28:14;;;;;;;18.02;12.52;;;;;;;17.19;66.93;99322.16;5208619;28;20427;-71
2022/09/01 02:31:07;;;;;;;19.38;13.18;;;;;;;17.17;67.11;99310.78;5228044;28;20113;-71
2022/09/01 02:33:59;;;;;;;20.55;13.52;;;;;;;17.12;67.04;99325.56;5221549;28;20053;-71
2022/09/01 02:36:52;;;;;;;19.58;12.77;;;;;;;17.14;67.29;99325.38;5226920;28;20067;-72
2022/09/01 02:39:45;;;;;;;17.92;12.88;;;;;;;17.01;67.35;99327.78;5228028;28;20495;-72
2022/09/01 02:42:41;;;;;;;20.35;12.73;;;;;;;17.09;67.25;99330.44;5224057;28;20040;-71
2022/09/01 02:45:32;;;;;;;20.02;13.25;;;;;;;17.04;67.42;99332.81;5243453;28;20145;-72
2022/09/01 02:48:31;;;;;;;19.80;13.88;;;;;;;17.13;67.13;99331.75;5228272;28;20423;-71
2022/09/01 02:51:26;;;;;;;23.67;14.10;;;;;;;16.97;67.06;99332.66;5227296;28;20502;-72
2022/09/01 02:54:18;;;;;;;22.13;14.43;;;;;;;16.89;67.30;99316.66;5243007;28;20238;-71
2022/09/01 02:57:08;;;;;;;26.08;15.93;;;;;;;17.01;67.69;99327.78;5227697;28;20102;-72
2022/09/01 02:59:59;;;;;;;23.33;14.85;;;;;;;16.82;67.93;99324.56;5228046;28;20499;-72
2022/09/01 03:02:51;;;;;;;21.08;14.05;;;;;;;16.87;67.39;99330.22;5225968;28;20084;-71
2022/09/01 03:05:42;;;;;;;22.45;15.15;;;;;;;16.84;68.02;99327.06;5243201;28;20056;-72
2022/09/01 03:08:37;;;;;;;23.67;14.45;;;;;;;16.60;69.23;99325.31;5228009;28;20074;-70
2022/09/01 03:11:29;;;;;;;20.85;14.60;;;;;;;16.75;68.39;99326.25;5227809;28;20122;-71
2022/09/01 03:14:23;;;;;;;23.88;15.70;;;;;;;16.76;67.99;99319.91;5228777;28;20504;-72
2022/09/01 03:17:13;;;;;;;22.30;15.18;;;;;;;16.77;67.65;99320.75;5227224;28;20418;-72
2022/09/01 03:20:06;;;;;;;21.80;15.40;;;;;;;16.66;68.39;99324.63;5223734;28;20138;-71
2022/09/01 03:22:57;;;;;;;24.92;14.10;;;;;;;16.58;68.44;99308.56;5216432;28;20513;-71
2022/09/01 03:25:47;;;;;;;20.13;15.05;;;;;;;16.43;68.87;99314.69;5231830;28;20421;-72
2022/09/01 03:28:38;;;;;;;23.77;16.02;;;;;;;16.63;68.21;99324.97;5218310;28;20248;-71
2022/09/01 03:31:29;;;;;;;26.05;16.65;;;;;;;16.68;67.92;99311.88;5231357;28;20071;-71
2022/09/01 03:34:22;;;;;;;22.95;15.80;;;;;;;16.47;68.16;99295.59;5231373;28;20056;-71
2022/09/01 03:37:16;;;;;;;28.40;16.77;;;;;;;16.59;68.43;99318.31;5231367;28;20055;-71
2022/09/01 03:40:07;;;;;;;29.63;17.08;;;;;;;16.50;68.74;99308.63;5231854;28;20051;-71
2022/09/01 03:42:59;;;;;;;26.02;17.63;;;;;;;16.55;69.23;99319.63;5229626;28;20044;-71
2022/09/01 03:45:49;;;;;;;24.33;17.13;;;;;;;16.47;69.12;99320.50;5231140;28;20074;-71
2022/09/01 03:48:41;;;;;;;25.77;17.50;;;;;;;16.45;68.65;99317.16;5227599;28;20535;-72
2022/09/01 03:51:33;;;;;;;27.88;19.65;;;;;;;16.54;68.74;99316.13;5229898;28;20441;-72
2022/09/01 03:54:26;;;;;;;30.08;19.30;;;;;;;16.47;68.85;99322.34;5230830;28;20048;-72
2022/09/01 03:57:16;;;;;;;28.40;19.35;;;;;;;16.48;69.00;99326.69;5218021;28;20045;-72
2022/09/01 04:00:19;;;;;;;27.40;18.70;;;;;;;16.48;68.35;99319.50;5246120;28;20178;-71
2022/09/01 04:03:11;;;;;;;24.73;17.55;;;;;;;16.36;68.40;99321.72;5229700;28;20060;-71
2022/09/01 04:06:03;;;;;;;26.77;18.20;;;;;;;16.29;67.86;99323.44;5230788;28;20153;-71
2022/09/01 04:09:01;;;;;;;30.35;18.90;;;;;;;16.33;68.90;99319.41;5201174;28;20075;-72
2022/09/01 04:11:54;;;;;;;27.58;17.92;;;;;;;16.32;68.55;99323.06;5235134;28;20063;-72
2022/09/01 04:14:47;;;;;;;27.25;17.63;;;;;;;16.16;68.85;99321.28;5230517;28;20060;-70
2022/09/01 04:20:58;;;;;;;28.02;19.98;;;;;;;16.17;69.80;99327.47;5245485;28;20141;-73
2022/09/01 04:23:48;;;;;;;33.80;20.60;;;;;;;16.19;69.61;99312.06;5230410;28;20072;-73
2022/09/01 04:26:39;;;;;;;28.13;20.13;;;;;;;16.21;69.33;99315.41;5245382;28;20101;-71
2022/09/01 04:29:31;;;;;;;35.40;21.80;;;;;;;16.35;69.04;99330.75;5230584;28;20056;-71
2022/09/01 04:32:24;;;;;;;35.05;21.80;;;;;;;16.35;69.60;99330.75;5242070;28;20091;-71
2022/09/01 04:35:17;;;;;;;33.88;20.70;;;;;;;16.40;69.41;99332.94;5216904;28;20529;-71
2022/09/01 04:38:08;;;;;;;38.53;22.52;;;;;;;16.16;70.21;99331.16;5244443;28;20044;-73
2022/09/01 04:41:03;;;;;;;34.47;21.40;;;;;;;16.30;69.84;99335.78;5222058;28;20074;-72
2022/09/01 04:43:56;;;;;;;39.05;22.55;;;;;;;16.15;70.32;99313.44;5229528;28;20048;-73
2022/09/01 04:46:49;;;;;;;40.58;22.67;;;;;;;16.16;70.24;99325.81;5229390;28;20529;-73
2022/09/01 04:49:40;;;;;;;36.60;22.38;;;;;;;16.16;70.33;99328.50;5223468;28;20076;-73
2022/09/01 04:52:30;;;;;;;38.20;22.20;;;;;;;16.27;70.09;99335.31;5239870;28;20130;-73
2022/09/01 04:55:27;;;;;;;40.67;23.27;;;;;;;16.30;69.64;99321.59;5228651;28;20079;-73
2022/09/01 04:58:17;;;;;;;41.72;24.10;;;;;;;16.29;69.51;99317.22;5244874;28;20048;-73
2022/09/01 05:01:19;;;;;;;41.53;24.25;;;;;;;16.30;69.58;99337.66;5242372;28;20550;-73
2022/09/01 05:04:17;;;;;;;39.92;23.38;;;;;;;16.18;69.56;99337.16;5214491;28;20499;-73
2022/09/01 05:07:09;;;;;;;39.40;23.08;;;;;;;15.98;69.88;99340.22;5215125;28;20049;-73
2022/09/01 05:10:01;;;;;;;38.17;22.10;;;;;;;15.94;70.46;99327.34;5229422;28;20201;-73
2022/09/01 05:13:08;;;;;;;39.67;23.08;;;;;;;16.18;69.44;99335.31;5214105;28;20410;-72
2022/09/01 05:16:02;;;;;;;38.92;22.48;;;;;;;16.36;69.09;99334.28;5240820;28;20063;-73
2022/09/01 05:18:54;;;;;;;39.20;23.08;;;;;;;16.60;68.50;99336.03;5222667;28;20051;-75
2022/09/01 05:21:46;;;;;;;40.40;23.98;;;;;;;16.29;69.77;99350.19;5224318;28;20079;-73
2022/09/01 05:24:37;;;;;;;41.28;23.92;;;;;;;16.28;69.40;99337.81;5229132;28;20048;-74
2022/09/01 05:27:32;;;;;;;41.75;23.30;;;;;;;16.26;69.65;99350.53;5228682;28;20055;-76
2022/09/01 05:30:27;;;;;;;38.33;23.30;;;;;;;16.25;70.01;99353.38;5213876;28;20129;-75
2022/09/01 05:33:18;;;;;;;34.63;21.48;;;;;;;16.28;69.13;99345.81;5242634;28;20060;-73
2022/09/01 05:36:14;;;;;;;39.83;22.52;;;;;;;16.36;69.35;99348.50;5228609;28;20094;-72
2022/09/01 05:39:06;;;;;;;36.20;21.98;;;;;;;16.39;69.72;99333.91;5229217;28;20049;-73
2022/09/01 05:41:58;;;;;;;40.40;22.92;;;;;;;16.64;69.76;99353.41;5241431;28;20128;-72
2022/09/01 05:44:48;;;;;;;40.58;24.58;;;;;;;16.73;69.34;99346.19;5243608;28;20049;-73
2022/09/01 05:47:41;;;;;;;45.80;25.70;;;;;;;16.82;69.31;99348.66;5228790;28;20056;-72
2022/09/01 05:50:33;;;;;;;48.25;24.40;;;;;;;16.94;69.05;99348.25;5228387;28;20147;-72
2022/09/01 05:53:25;;;;;;;46.05;25.23;;;;;;;16.92;69.05;99335.06;5228446;28;20048;-72
2022/09/01 05:56:18;;;;;;;45.70;25.35;;;;;;;17.04;69.39;99343.50;5228313;28;20056;-70
2022/09/01 05:59:10;;;;;;;44.42;25.58;;;;;;;17.12;69.59;99338.94;5229444;28;20048;-70
2022/09/01 06:02:22;;;;;;;45.35;25.10;;;;;;;17.30;68.44;99332.47;5228404;28;20049;-70
2022/09/01 06:05:12;;;;;;;44.45;25.30;;;;;;;17.27;69.14;99325.59;5228953;28;20675;-70
2022/09/01 06:08:06;;;;;;;50.42;26.05;;;;;;;17.50;68.39;99330.13;5212629;28;20105;-68
2022/09/01 06:10:57;;;;;;;49.80;26.13;;;;;;;17.47;68.55;99335.84;5227748;28;20434;-69
2022/09/01 06:13:51;;;;;;;46.50;26.05;;;;;;;17.68;68.38;99330.66;5215924;28;20521;-69
2022/09/01 06:16:46;;;;;;;46.33;25.45;;;;;;;17.70;68.35;99323.25;5226771;28;20112;-70
2022/09/01 06:19:38;;;;;;;47.20;24.70;;;;;;;17.93;67.99;99331.28;5228553;28;20121;-70
2022/09/01 06:22:28;;;;;;;42.22;23.63;;;;;;;18.07;67.70;99330.44;5224903;28;20060;-70
2022/09/01 06:25:21;;;;;;;47.15;25.25;;;;;;;18.25;68.04;99327.41;5226061;28;20056;-70
2022/09/01 06:28:13;;;;;;;42.53;23.40;;;;;;;18.28;67.54;99320.84;5227264;28;20086;-70
2022/09/01 06:31:05;;;;;;;34.15;21.17;;;;;;;18.46;66.82;99328.50;5226486;28;20466;-69
2022/09/01 06:33:56;;;;;;;33.38;17.98;;;;;;;18.61;65.61;99326.66;5241187;28;20051;-70
2022/09/01 06:36:51;;;;;;;27.35;18.38;;;;;;;18.75;65.19;99327.69;5242468;28;20055;-70
2022/09/01 06:39:43;;;;;;;26.55;16.52;;;;;;;18.81;65.21;99324.25;5242110;28;20076;-69
2022/09/01 06:42:34;;;;;;;27.92;15.90;;;;;;;19.01;63.35;99322.59;5241498;28;20059;-70
2022/09/01 06:45:25;;;;;;;27.25;16.38;;;;;;;18.96;63.97;99319.66;5222029;28;20193;-69
2022/09/01 06:48:17;;;;;;;25.10;16.30;;;;;;;18.97;63.70;99315.97;5228299;28;20249;-69
2022/09/01 06:51:08;;;;;;;23.20;15.40;;;;;;;19.18;63.12;99317.81;5227457;28;20060;-69
2022/09/01 06:54:13;;;;;;;20.42;14.95;;;;;;;19.39;62.67;99308.91;5228735;28;20056;-69
2022/09/01 06:57:04;;;;;;;18.63;13.20;;;;;;;19.62;62.93;99324.00;5230774;28;20060;-70
2022/09/01 07:00:18;;;;;;;18.23;11.55;;;;;;;19.70;61.34;99326.56;5231302;28;20097;-69
2022/09/01 07:03:12;;;;;;;16.52;11.68;;;;;;;19.87;61.41;99313.69;5216253;28;20052;-69
2022/09/01 07:06:28;;;;;;;17.00;11.15;;;;;;;19.92;60.86;99325.50;5237618;28;20079;-69
2022/09/01 07:09:39;;;;;;;15.82;9.82;;;;;;;19.98;59.98;99329.28;5231043;28;20114;-69
2022/09/01 07:13:00;;;;;;;15.98;9.82;;;;;;;20.30;59.65;99332.41;5230708;28;20059;-69
2022/09/01 07:15:58;;;;;;;13.65;9.15;;;;;;;20.46;57.43;99333.91;5246457;28;20135;-69
2022/09/01 07:19:12;;;;;;;13.05;9.30;;;;;;;21.17;56.91;99330.91;5231049;28;20612;-70
2022/09/01 07:22:10;;;;;;;14.68;10.50;;;;;;;21.72;55.98;99332.47;5230469;28;20174;-70
2022/09/01 07:25:20;;;;;;;16.25;10.52;;;;;;;22.07;54.41;99334.91;5230595;28;20054;-69
2022/09/01 07:28:26;;;;;;;15.15;10.60;;;;;;;21.87;53.74;99334.94;5245520;28;20418;-69
2022/09/01 07:31:29;;;;;;;15.13;11.15;;;;;;;21.77;54.46;99337.22;5230123;28;20075;-70
2022/09/01 07:34:40;;;;;;;15.70;11.30;;;;;;;21.99;53.75;99338.66;5231340;28;20072;-69
2022/09/01 07:37:36;;;;;;;16.05;10.88;;;;;;;21.91;54.76;99341.56;5231018;28;20067;-69
2022/09/01 07:40:53;;;;;;;12.13;7.20;;;;;;;23.05;50.68;99298.88;5231189;28;20048;-72
2022/09/01 07:44:22;;;;;;;12.27;7.38;;;;;;;24.21;48.10;99335.44;5244140;28;20048;-66
2022/09/01 07:47:32;;;;;;;8.30;5.95;;;;;;;25.16;46.44;99348.53;5246026;28;20422;-67
2022/09/01 07:50:46;;;;;;;9.50;6.45;;;;;;;25.02;44.95;99343.25;5230398;28;20047;-67
2022/09/01 07:53:57;;;;;;;9.48;6.45;;;;;;;25.25;43.85;99347.97;5227582;28;20052;-67
2022/09/01 07:56:49;;;;;;;10.57;6.82;;;;;;;25.11;45.23;99354.63;5227641;28;20048;-67
2022/09/01 07:59:39;;;;;;;8.48;6.63;;;;;;;25.98;44.12;99351.47;5231167;28;20247;-67
2022/09/01 08:02:39;;;;;;;9.85;7.07;;;;;;;26.31;43.20;99353.59;5229558;28;20056;-67
2022/09/01 08:05:31;;;;;;;9.77;6.75;;;;;;;26.90;42.63;99353.50;5228088;28;20049;-67
2022/09/01 08:08:24;;;;;;;12.80;6.93;;;;;;;26.47;41.26;99349.31;5223212;28;20243;-66
2022/09/01 08:11:23;;;;;;;9.57;6.53;;;;;;;26.48;43.65;99351.81;5231259;28;20060;-66
2022/09/01 08:14:34;;;;;;;9.05;6.82;;;;;;;26.45;42.84;99346.81;5218848;28;20052;-66
2022/09/01 08:17:25;;;;;;;9.70;7.07;;;;;;;26.64;42.23;99354.88;5228917;28;20053;-68
2022/09/01 08:20:43;;;;;;;11.73;7.47;;;;;;;26.51;41.31;99360.56;5245106;28;20414;-66
2022/09/01 08:23:57;;;;;;;9.18;6.97;;;;;;;27.23;42.59;99368.34;5213725;28;20123;-67
2022/09/01 08:26:47;;;;;;;5.97;5.38;;;;;;;26.02;42.61;99363.50;5229021;28;20052;-67
2022/09/01 08:29:37;;;;;;;9.60;6.05;;;;;;;27.21;41.98;99357.66;5229358;28;20105;-67
2022/09/01 08:32:28;;;;;;;7.10;5.72;;;;;;;26.19;43.17;99360.91;5229801;28;20055;-66
2022/09/01 08:35:19;;;;;;;6.28;5.47;;;;;;;25.25;43.79;99352.59;5242609;28;20559;-68
2022/09/01 08:38:10;;;;;;;6.68;5.07;;;;;;;24.87;45.22;99369.13;5230267;28;20108;-66
2022/09/01 08:41:04;;;;;;;6.85;5.32;;;;;;;25.03;45.10;99365.78;5227133;28;20521;-66
2022/09/01 08:44:29;;;;;;;7.80;5.90;;;;;;;24.94;44.75;99361.75;5244325;28;20123;-67
2022/09/01 08:47:21;;;;;;;7.50;5.60;;;;;;;24.13;45.68;99369.06;5242658;28;20099;-69
2022/09/01 08:50:33;;;;;;;7.15;5.38;;;;;;;24.23;46.26;99363.97;5244399;28;20222;-67
2022/09/01 08:54:05;;;;;;;6.97;5.43;;;;;;;23.91;46.70;99357.81;5224695;28;20051;-67
2022/09/01 08:57:26;;;;;;;6.57;5.10;;;;;;;24.16;46.82;99365.91;5229452;28;20055;-67
2022/09/01 09:00:44;;;;;;;5.07;4.28;;;;;;;23.85;45.62;99362.22;5244159;28;20522;-67
2022/09/01 09:03:48;;;;;;;6.35;4.90;;;;;;;23.20;48.01;99359.72;5241880;28;20055;-67
2022/09/01 09:07:13;;;;;;;9.23;5.45;;;;;;;23.64;47.10;99362.56;5242611;28;20048;-67
2022/09/01 09:10:11;;;;;;;7.05;5.22;;;;;;;23.51;48.05;99373.47;5244335;28;20127;-67
2022/09/01 09:13:12;;;;;;;5.63;4.90;;;;;;;23.63;47.54;99372.56;5243612;28;20412;-67
2022/09/01 09:16:11;;;;;;;5.60;4.90;;;;;;;23.50;48.46;99369.94;5202300;28;20063;-67
2022/09/01 09:19:18;;;;;;;6.53;4.43;;;;;;;23.45;47.24;99378.72;5218296;28;20423;-67
2022/09/01 09:22:12;;;;;;;5.70;4.78;;;;;;;23.76;46.71;99373.56;5215971;28;20072;-67
2022/09/01 09:25:13;;;;;;;5.53;4.47;;;;;;;23.67;47.66;99372.94;5220679;28;20157;-67
2022/09/01 09:28:09;;;;;;;6.28;4.50;;;;;;;23.48;47.74;99372.06;5211436;28;20182;-67
2022/09/01 09:31:36;;;;;;;4.80;4.00;;;;;;;23.25;47.69;99348.28;5199144;28;20068;-67
2022/09/01 09:34:33;;;;;;;4.30;3.90;;;;;;;23.51;47.84;99374.34;5209724;28;21515;-67
2022/09/01 09:37:28;;;;;;;5.57;4.47;;;;;;;23.45;47.14;99353.56;5219958;28;20067;-67
2022/09/01 09:40:25;;;;;;;5.25;3.85;;;;;;;23.57;47.64;99367.19;5216181;28;20060;-67
2022/09/01 09:43:16;;;;;;;7.93;4.05;;;;;;;23.72;46.79;99362.34;5227914;28;20234;-67
2022/09/01 09:46:39;;;;;;;8.68;4.07;;;;;;;23.39;46.83;99316.53;5228526;28;20761;-67
2022/09/01 09:49:31;;;;;;;6.38;4.32;;;;;;;23.81;45.96;99366.44;5232105;28;20084;-67
2022/09/01 09:52:26;;;;;;;5.20;4.15;;;;;;;23.48;46.64;99365.78;5228050;28;20494;-66
2022/09/01 09:55:29;;;;;;;4.28;3.88;;;;;;;23.67;47.69;99365.69;5211757;28;20059;-67
2022/09/01 09:58:25;;;;;;;4.35;3.95;;;;;;;23.77;46.93;99367.91;5214874;28;20564;-67
2022/09/01 10:01:22;;;;;;;5.70;4.07;;;;;;;23.55;46.53;99370.13;5208104;28;20525;-67
2022/09/01 10:04:31;;;;;;;5.70;4.88;;;;;;;23.28;47.69;99358.66;5220431;28;20063;-67
2022/09/01 10:07:30;;;;;;;5.63;4.28;;;;;;;23.23;48.08;99360.34;5238798;28;20116;-69
2022/09/01 10:10:36;;;;;;;8.02;4.07;;;;;;;23.91;47.06;99353.22;5242989;28;20071;-68
2022/09/01 10:13:30;;;;;;;5.75;4.15;;;;;;;24.20;45.85;99347.31;5215541;28;20122;-69
2022/09/01 10:16:27;;;;;;;5.30;3.75;;;;;;;24.51;44.15;99344.53;5228411;28;20063;-69
2022/09/01 10:19:21;;;;;;;5.90;4.18;;;;;;;24.21;45.09;99352.53;5250026;28;20174;-69
2022/09/01 10:22:12;;;;;;;7.47;4.30;;;;;;;23.48;46.98;99349.56;5235848;28;20311;-68
2022/09/01 10:25:07;;;;;;;9.90;4.03;;;;;;;23.87;45.78;99349.31;5233964;28;20052;-70
2022/09/01 10:28:22;;;;;;;6.32;4.28;;;;;;;24.05;45.57;99348.50;5225801;28;20048;-70
2022/09/01 10:31:14;;;;;;;7.20;4.22;;;;;;;24.22;45.81;99356.06;5247737;28;20067;-69
2022/09/01 10:34:06;;;;;;;6.82;4.75;;;;;;;25.02;44.77;99358.72;5230706;28;20052;-69
2022/09/01 10:36:58;;;;;;;5.10;4.03;;;;;;;24.95;44.39;99353.38;5238907;28;20097;-70
2022/09/01 10:40:19;;;;;;;4.95;3.42;;;;;;;24.96;43.83;99352.31;5254357;28;20710;-69
2022/09/01 10:43:28;;;;;;;4.25;3.85;;;;;;;24.72;44.49;99351.38;5234906;28;20055;-70
2022/09/01 10:46:25;;;;;;;7.47;5.38;;;;;;;24.34;45.51;99351.56;5252533;28;20748;-69
2022/09/01 10:49:32;;;;;;;6.82;5.28;;;;;;;24.51;45.03;99354.53;5240299;28;20044;-69
2022/09/01 10:52:41;;;;;;;6.10;4.13;;;;;;;24.66;44.66;99349.56;5246102;28;20114;-69
2022/09/01 10:55:41;;;;;;;5.07;4.05;;;;;;;24.68;44.88;99339.31;5247779;28;20138;-69
2022/09/01 10:58:49;;;;;;;4.68;4.03;;;;;;;24.91;44.12;99345.94;5254994;28;20121;-69
2022/09/01 11:02:15;;;;;;;6.50;3.50;;;;;;;25.04;44.03;99333.00;5253923;28;20075;-69
2022/09/01 11:05:16;;;;;;;7.50;4.15;;;;;;;25.15;44.81;99336.03;5237930;28;20517;-69
2022/09/01 11:08:41;;;;;;;5.28;3.63;;;;;;;25.11;43.33;99327.50;5246081;28;20517;-71
2022/09/01 11:11:49;;;;;;;7.20;4.20;;;;;;;25.10;44.14;99336.72;5242722;28;20047;-69
2022/09/01 11:15:02;;;;;;;3.67;3.28;;;;;;;25.13;43.20;99330.00;5232059;28;20055;-68
2022/09/01 11:17:56;;;;;;;6.47;3.77;;;;;;;25.26;42.49;99327.91;5244132;28;20502;-69
2022/09/01 11:20:47;;;;;;;8.50;3.92;;;;;;;25.36;43.60;99326.53;5242304;28;20071;-69
2022/09/01 11:23:37;;;;;;;5.55;3.63;;;;;;;24.73;44.23;99317.75;5227290;28;20118;-70
2022/09/01 11:26:34;;;;;;;5.50;3.83;;;;;;;25.29;43.27;99316.59;5232247;28;20068;-69
2022/09/01 11:29:51;;;;;;;5.10;3.33;;;;;;;25.68;41.80;99303.47;5229034;28;20060;-70
2022/09/01 11:32:48;;;;;;;6.57;3.80;;;;;;;26.15;41.74;99294.50;5227044;28;20037;-68
2022/09/01 11:35:38;;;;;;;3.58;3.15;;;;;;;26.20;42.37;99305.50;5223902;28;20056;-68
2022/09/01 11:38:47;;;;;;;4.85;3.38;;;;;;;26.42;41.40;99297.53;5222494;28;20056;-69
2022/09/01 11:41:38;;;;;;;3.75;3.45;;;;;;;26.79;41.15;99294.50;5217621;28;20076;-68
2022/09/01 11:44:44;;;;;;;3.83;3.42;;;;;;;26.67;40.80;99292.66;5217569;28;20060;-70
2022/09/01 11:47:40;;;;;;;3.60;3.10;;;;;;;26.93;39.23;99294.00;5218834;28;20065;-68
2022/09/01 11:50:35;;;;;;;4.10;3.22;;;;;;;27.04;39.35;99284.09;5214564;28;20056;-69
2022/09/01 11:53:26;;;;;;;4.32;3.72;;;;;;;26.36;41.14;99283.03;5223375;28;21301;-70
2022/09/01 11:56:24;;;;;;;5.38;3.45;;;;;;;25.52;40.94;99287.84;5226830;28;20209;-71
2022/09/01 11:59:37;;;;;;;3.20;2.88;;;;;;;26.08;40.82;99283.78;5228173;28;20657;-70
2022/09/01 12:02:32;;;;;;;4.97;3.00;;;;;;;25.83;39.60;99284.03;5226983;28;20083;-69
2022/09/01 12:05:32;;;;;;;5.00;2.85;;;;;;;25.91;40.19;99282.84;5229508;28;20117;-69
2022/09/01 12:08:22;;;;;;;6.47;2.85;;;;;;;25.96;40.58;99278.38;5230302;28;20064;-68
2022/09/01 12:11:26;;;;;;;3.45;3.15;;;;;;;26.00;41.13;99274.09;5229177;28;20057;-70
2022/09/01 12:14:21;;;;;;;4.85;3.55;;;;;;;25.95;41.04;99262.28;5228288;28;20198;-68
2022/09/01 12:17:12;;;;;;;5.63;3.72;;;;;;;25.63;41.71;99259.91;5229472;28;20063;-70
2022/09/01 12:20:24;;;;;;;3.53;3.22;;;;;;;25.31;42.61;99275.66;5228631;28;20334;-69
2022/09/01 12:23:24;;;;;;;3.67;3.38;;;;;;;25.00;43.03;99274.84;5227554;28;20522;-68
2022/09/01 12:26:19;;;;;;;3.95;3.20;;;;;;;24.73;43.77;99279.78;5219131;28;20425;-68
2022/09/01 12:29:12;;;;;;;4.05;3.60;;;;;;;24.68;42.99;99276.97;5222313;28;20194;-68
2022/09/01 12:32:04;;;;;;;4.40;4.00;;;;;;;24.49;44.07;99283.47;5215334;28;20100;-67
2022/09/01 12:35:03;;;;;;;6.90;4.05;;;;;;;25.07;43.41;99280.19;5223866;28;20072;-68
2022/09/01 12:38:19;;;;;;;6.63;3.65;;;;;;;25.40;43.49;99268.84;5220011;28;20588;-68
2022/09/01 12:41:36;;;;;;;3.78;3.33;;;;;;;25.48;42.21;99271.22;5222172;28;20410;-69
2022/09/01 12:44:38;;;;;;;5.53;3.38;;;;;;;25.15;41.79;99269.03;5220233;28;20063;-67
2022/09/01 12:47:32;;;;;;;6.88;4.00;;;;;;;25.30;42.60;99274.03;5224242;28;21716;-69
2022/09/01 12:50:25;;;;;;;4.20;3.80;;;;;;;25.68;41.45;99260.00;5224371;28;20161;-69
2022/09/01 12:53:19;;;;;;;3.42;3.13;;;;;;;25.87;41.17;99262.66;5228944;28;20645;-69
2022/09/01 12:56:23;;;;;;;3.33;3.03;;;;;;;26.27;40.52;99251.03;5231095;28;20068;-69
2022/09/01 12:59:25;;;;;;;5.25;3.17;;;;;;;25.07;42.02;99259.31;5214709;28;20526;-69
2022/09/01 13:02:34;;;;;;;3.92;3.20;;;;;;;25.49;41.16;99250.31;5228355;28;20123;-69
2022/09/01 13:05:32;;;;;;;4.28;3.22;;;;;;;25.80;40.18;99254.63;5225924;28;20426;-69
2022/09/01 13:08:33;;;;;;;6.00;3.13;;;;;;;25.92;40.32;99232.88;5225945;28;20056;-69
2022/09/01 13:11:24;;;;;;;4.03;3.23;;;;;;;25.81;41.16;99247.28;5226077;28;20059;-68
2022/09/01 13:14:15;;;;;;;5.82;3.50;;;;;;;25.34;41.13;99252.66;5228534;28;20052;-68
2022/09/01 13:17:05;;;;;;;5.80;3.22;;;;;;;25.80;40.92;99248.34;5221275;28;20060;-68
2022/09/01 13:20:05;;;;;;;5.75;3.20;;;;;;;25.46;40.12;99251.63;5220149;28;20059;-68
2022/09/01 13:22:55;;;;;;;5.70;3.05;;;;;;;26.06;39.23;99252.47;5216887;28;20063;-69
2022/09/01 13:25:45;;;;;;;3.58;3.28;;;;;;;26.00;39.53;99241.50;5220318;28;20057;-68
2022/09/01 13:28:35;;;;;;;3.53;3.22;;;;;;;25.95;40.07;99237.81;5223897;28;20048;-69
2022/09/01 13:31:30;;;;;;;4.13;3.75;;;;;;;25.33;40.82;99229.28;5223554;28;20113;-69
2022/09/01 13:34:22;;;;;;;3.53;3.22;;;;;;;25.92;40.60;99235.59;5220646;28;20060;-68
2022/09/01 13:37:14;;;;;;;3.90;3.50;;;;;;;25.54;41.14;99221.41;5221471;28;20099;-68
2022/09/01 13:40:07;;;;;;;3.72;3.40;;;;;;;25.44;40.81;99229.31;5222622;28;20057;-68
2022/09/01 13:42:57;;;;;;;3.40;3.10;;;;;;;25.18;40.76;99192.59;5255471;22;20055;-67
2022/09/01 13:45:49;;;;;;;3.85;3.00;;;;;;;25.23;39.39;99222.56;5246946;28;20122;-67
2022/09/01 13:48:41;;;;;;;3.50;2.80;;;;;;;25.77;39.42;99222.47;5247799;28;20044;-67